Time;durP1;ratioP1;P1;durP2;ratioP2;P2;SDS_P1;SDS_P2;PMS_P1;PMS_P2;Temp;Humidity;BMP_temperature;BMP_pressure;BME280_temperature;BME280_humidity;BME280_pressure;Samples;Min_cycle;Max_cycle;Signal;HPM_P1;HPM_P2
2023/12/13 00:00:26;;;;;;;19.65;6.10;;;;;;;7.97;84.54;98068.19;4977813;28;20059;-50
2023/12/13 00:02:53;;;;;;;15.65;4.85;;;;;;;7.95;85.14;98077.69;4981519;28;20054;-48
2023/12/13 00:05:20;;;;;;;29.55;7.18;;;;;;;7.95;85.23;98072.53;4975038;28;20051;-48
2023/12/13 00:07:46;;;;;;;25.73;7.32;;;;;;;7.91;85.50;98073.47;4971528;28;20134;-48
2023/12/13 00:10:13;;;;;;;22.73;7.70;;;;;;;7.96;84.54;98079.38;4979003;28;20504;-47
2023/12/13 00:12:40;;;;;;;15.40;7.00;;;;;;;7.93;84.19;98076.88;4977606;28;20089;-43
2023/12/13 00:15:08;;;;;;;18.58;6.20;;;;;;;7.94;84.28;98078.56;4978391;28;20053;-49
2023/12/13 00:17:34;;;;;;;22.75;6.70;;;;;;;7.96;84.92;98087.13;4980728;28;20078;-47
2023/12/13 00:20:05;;;;;;;21.08;9.63;;;;;;;7.96;84.69;98087.13;4980256;28;20472;-47
2023/12/13 00:22:33;;;;;;;16.83;5.50;;;;;;;7.97;84.50;98082.78;4987953;28;20516;-45
2023/12/13 00:24:59;;;;;;;24.05;6.65;;;;;;;7.94;85.02;98094.03;4982280;28;20066;-49
2023/12/13 00:27:26;;;;;;;18.50;6.05;;;;;;;7.94;84.36;98094.03;4977783;28;20346;-50
2023/12/13 00:29:53;;;;;;;20.95;6.25;;;;;;;7.93;84.66;98094.91;4985140;28;20552;-49
2023/12/13 00:32:20;;;;;;;23.88;8.35;;;;;;;7.94;84.04;98104.34;4980736;28;20125;-53
2023/12/13 00:34:46;;;;;;;20.63;7.05;;;;;;;7.91;84.63;98104.41;4984717;28;20046;-47
2023/12/13 00:37:13;;;;;;;22.25;7.03;;;;;;;7.89;84.51;98106.19;4983829;28;20070;-47
2023/12/13 00:39:40;;;;;;;16.52;6.72;;;;;;;7.91;84.84;98104.41;4981051;28;20137;-44
2023/12/13 00:42:07;;;;;;;24.13;7.38;;;;;;;7.94;84.50;98108.66;4981504;28;20118;-44
2023/12/13 00:44:33;;;;;;;22.98;7.70;;;;;;;7.92;85.02;98110.41;4980233;28;20058;-45
2023/12/13 00:47:01;;;;;;;27.23;7.35;;;;;;;7.92;84.99;98108.69;4976858;28;20046;-44
2023/12/13 00:49:27;;;;;;;23.00;6.57;;;;;;;7.92;84.72;98100.97;4984586;28;20050;-45
2023/12/13 00:51:54;;;;;;;17.95;7.13;;;;;;;7.90;84.78;98115.59;4987463;28;20046;-47
2023/12/13 00:54:21;;;;;;;22.50;8.20;;;;;;;7.90;84.72;98113.03;4988590;28;20054;-48
2023/12/13 00:56:47;;;;;;;21.45;6.85;;;;;;;7.92;84.73;98111.28;4986446;28;20057;-48
2023/12/13 00:59:14;;;;;;;19.88;5.57;;;;;;;7.91;84.89;98108.72;4984857;28;20042;-50
2023/12/13 01:01:43;;;;;;;22.23;8.57;;;;;;;7.89;84.46;98116.50;4987647;28;20467;-45
2023/12/13 01:04:11;;;;;;;18.45;6.15;;;;;;;7.90;84.17;98118.19;4986354;28;20046;-44
2023/12/13 01:06:38;;;;;;;11.48;4.18;;;;;;;7.84;84.57;98114.00;4985929;28;20050;-44
2023/12/13 01:09:04;;;;;;;12.27;4.43;;;;;;;7.87;84.37;98117.41;4983384;28;20043;-50
2023/12/13 01:11:31;;;;;;;19.58;6.30;;;;;;;7.86;84.93;98111.41;4986313;28;20082;-49
2023/12/13 01:13:58;;;;;;;13.52;5.03;;;;;;;7.82;84.39;98126.09;4990022;28;20526;-45
2023/12/13 01:16:25;;;;;;;18.50;6.22;;;;;;;7.86;84.92;98126.88;4988045;28;20061;-51
2023/12/13 01:18:52;;;;;;;14.27;5.43;;;;;;;7.86;84.42;98132.03;4990408;28;20532;-46
2023/12/13 01:21:19;;;;;;;15.10;5.05;;;;;;;7.81;85.25;98137.28;4981839;28;20097;-46
2023/12/13 01:23:45;;;;;;;14.93;4.93;;;;;;;7.80;84.65;98132.19;4988243;28;20054;-46
2023/12/13 01:26:12;;;;;;;18.63;7.93;;;;;;;7.80;84.11;98132.19;4982184;28;20566;-49
2023/12/13 01:28:39;;;;;;;14.68;4.88;;;;;;;7.82;84.71;98140.72;4990734;28;20057;-49
2023/12/13 01:31:07;;;;;;;16.65;4.80;;;;;;;7.84;84.21;98141.53;4986566;28;20054;-43
2023/12/13 01:33:34;;;;;;;15.20;5.95;;;;;;;7.78;84.66;98147.69;4983249;28;20054;-53
2023/12/13 01:36:02;;;;;;;12.25;4.57;;;;;;;7.80;84.21;98147.66;4982615;28;20141;-45
2023/12/13 01:38:29;;;;;;;15.73;6.88;;;;;;;7.81;85.07;98152.75;4988183;28;20409;-51
2023/12/13 01:40:57;;;;;;;17.38;5.78;;;;;;;7.81;84.26;98159.66;4984485;28;20042;-51
2023/12/13 01:43:41;;;;;;;16.10;6.47;;;;;;;7.79;85.19;98166.53;4986389;28;20435;-46
2023/12/13 01:46:11;;;;;;;17.92;5.63;;;;;;;7.81;84.01;98164.81;4985296;28;20511;-49
2023/12/13 01:48:40;;;;;;;19.52;6.63;;;;;;;7.81;84.27;98167.38;4987749;28;20296;-46
2023/12/13 01:51:08;;;;;;;19.20;5.95;;;;;;;7.81;84.52;98169.97;4988871;28;20053;-51
2023/12/13 01:53:38;;;;;;;16.30;6.15;;;;;;;7.81;84.36;98167.38;4986094;28;20050;-46
2023/12/13 01:56:07;;;;;;;15.60;6.07;;;;;;;7.82;84.89;98172.50;4982652;28;20072;-47
2023/12/13 01:58:37;;;;;;;19.25;6.57;;;;;;;7.84;84.02;98175.06;4990179;28;20069;-49
2023/12/13 02:01:06;;;;;;;;;;;;;;;7.77;84.94;98181.22;4989795;28;20472;-48
2023/12/13 02:03:35;;;;;;;12.60;4.43;;;;;;;7.81;84.37;98180.25;4978498;28;19929;-49
2023/12/13 02:06:06;;;;;;;13.70;4.68;;;;;;;7.80;84.87;98183.72;4997976;28;20050;-44
2023/12/13 02:08:35;;;;;;;19.33;6.68;;;;;;;7.80;85.25;98189.72;4987004;28;20205;-53
2023/12/13 02:11:04;;;;;;;18.67;6.28;;;;;;;7.81;85.26;98190.56;4989793;28;20053;-49
2023/12/13 02:13:32;;;;;;;19.30;5.60;;;;;;;7.80;84.35;98192.28;4987826;28;20042;-44
2023/12/13 02:16:00;;;;;;;15.63;5.40;;;;;;;7.81;85.44;98195.72;4987181;28;20573;-50
2023/12/13 02:18:27;;;;;;;22.27;7.07;;;;;;;7.80;84.97;98202.59;4984329;28;20134;-44
2023/12/13 02:20:54;;;;;;;16.77;5.72;;;;;;;7.80;84.56;98204.34;4978307;28;20117;-45
2023/12/13 02:23:21;;;;;;;13.95;4.95;;;;;;;7.71;85.51;98198.47;4984178;28;20042;-50
2023/12/13 02:25:57;;;;;;;16.98;5.82;;;;;;;7.75;84.78;98201.88;4983024;28;20045;-46
2023/12/13 02:28:24;;;;;;;18.27;5.88;;;;;;;7.69;85.11;98208.00;4984729;28;20082;-48
2023/12/13 02:30:53;;;;;;;13.07;4.30;;;;;;;7.64;85.98;98204.66;4983042;28;20045;-50
2023/12/13 02:33:25;;;;;;;18.90;7.07;;;;;;;7.69;85.56;98201.97;4987273;28;20062;-46
2023/12/13 02:35:54;;;;;;;16.52;4.57;;;;;;;7.69;85.28;98208.00;4986020;28;20058;-48
2023/12/13 02:38:21;;;;;;;12.80;4.88;;;;;;;7.69;84.55;98213.13;4983186;28;20069;-48
2023/12/13 02:40:48;;;;;;;15.38;5.05;;;;;;;7.65;85.08;98206.34;4982026;28;20042;-53
2023/12/13 02:43:16;;;;;;;8.90;2.85;;;;;;;7.68;83.92;98216.59;4988628;28;20046;-53
2023/12/13 02:45:43;;;;;;;6.30;2.60;;;;;;;7.66;84.73;98213.19;4987914;28;20550;-52
2023/12/13 02:48:10;;;;;;;6.47;3.55;;;;;;;7.64;83.52;98216.69;4985676;28;20688;-42
2023/12/13 02:50:38;;;;;;;11.43;4.20;;;;;;;7.61;83.39;98215.03;4985656;28;20047;-50
2023/12/13 02:53:06;;;;;;;6.88;3.05;;;;;;;7.58;83.90;98220.25;4982835;28;20038;-48
2023/12/13 02:55:33;;;;;;;8.38;3.45;;;;;;;7.61;83.74;98225.34;4984183;28;20053;-47
2023/12/13 02:58:00;;;;;;;15.90;4.00;;;;;;;7.59;83.52;98227.09;4986252;28;20050;-46
2023/12/13 03:00:27;;;;;;;6.55;2.88;;;;;;;7.60;83.66;98228.78;4986942;28;20053;-49
2023/12/13 03:02:56;;;;;;;13.05;3.88;;;;;;;7.58;84.33;98230.53;4975980;28;20069;-48
2023/12/13 03:05:24;;;;;;;9.68;3.67;;;;;;;7.59;84.04;98237.38;4992463;28;20046;-50
2023/12/13 03:07:50;;;;;;;13.60;3.85;;;;;;;7.60;83.34;98233.94;4980512;28;20060;-52
2023/12/13 03:10:17;;;;;;;8.13;3.88;;;;;;;7.58;83.56;98235.69;4982770;28;20534;-46
2023/12/13 03:12:44;;;;;;;9.77;4.22;;;;;;;7.61;83.87;98245.94;4991206;28;20567;-53
2023/12/13 03:15:11;;;;;;;12.88;5.15;;;;;;;7.61;83.46;98253.69;4984101;28;20046;-41
2023/12/13 03:17:37;;;;;;;12.52;4.38;;;;;;;7.51;83.52;98257.31;4988780;28;20129;-45
2023/12/13 03:20:06;;;;;;;13.82;4.25;;;;;;;7.58;84.54;98257.16;4983188;28;20042;-46
2023/12/13 03:22:33;;;;;;;10.63;3.83;;;;;;;7.58;84.12;98259.75;4985590;28;20050;-45
2023/12/13 03:24:59;;;;;;;21.50;4.10;;;;;;;7.58;84.26;98262.31;4986660;28;20042;-47
2023/12/13 03:27:26;;;;;;;6.70;4.80;;;;;;;7.59;83.05;98264.00;4986023;28;20419;-50
2023/12/13 03:29:53;;;;;;;8.15;2.35;;;;;;;7.57;82.88;98264.94;4984422;28;20054;-49
2023/12/13 03:32:19;;;;;;;7.45;2.63;;;;;;;7.58;82.93;98266.63;4987703;28;20054;-48
2023/12/13 03:34:46;;;;;;;5.05;3.00;;;;;;;7.58;83.36;98269.19;4986225;28;20064;-47
2023/12/13 03:37:14;;;;;;;6.38;2.42;;;;;;;7.55;83.04;98266.66;4987950;28;20053;-42
2023/12/13 03:39:41;;;;;;;7.40;2.20;;;;;;;7.58;83.02;98271.78;4985022;28;20078;-45
2023/12/13 03:42:08;;;;;;;8.45;1.73;;;;;;;7.53;82.46;98273.59;4985426;28;20050;-53
2023/12/13 03:44:34;;;;;;;3.88;1.67;;;;;;;7.50;82.25;98274.47;4987010;28;20061;-46
2023/12/13 03:47:01;;;;;;;3.45;1.52;;;;;;;7.50;82.33;98278.81;4986397;28;20049;-49
2023/12/13 03:49:28;;;;;;;5.00;3.03;;;;;;;7.49;83.02;98277.94;4985215;28;20416;-53
2023/12/13 03:51:54;;;;;;;2.58;0.82;;;;;;;7.44;82.63;98275.44;4986029;28;20065;-53
2023/12/13 03:54:21;;;;;;;4.07;1.40;;;;;;;7.46;82.80;98280.56;4982696;28;20042;-49
2023/12/13 03:56:48;;;;;;;3.65;1.25;;;;;;;7.44;82.81;98272.88;4987401;28;20081;-53
2023/12/13 03:59:15;;;;;;;2.30;1.88;;;;;;;7.41;82.12;98275.53;4984301;28;20057;-49
2023/12/13 04:01:41;;;;;;;2.92;1.05;;;;;;;7.40;82.00;98267.81;4979252;28;20055;-46
2023/12/13 04:04:08;;;;;;;1.70;0.90;;;;;;;7.40;82.15;98271.22;4985745;28;20060;-47
2023/12/13 04:06:35;;;;;;;4.38;0.60;;;;;;;7.38;81.36;98270.41;4984488;28;20178;-44
2023/12/13 04:09:02;;;;;;;2.78;0.95;;;;;;;7.37;81.71;98268.72;4980448;28;20136;-49
2023/12/13 04:11:29;;;;;;;1.67;1.00;;;;;;;7.30;82.41;98278.28;4982077;28;20054;-44
2023/12/13 04:13:55;;;;;;;5.60;1.20;;;;;;;7.31;81.83;98273.97;4987318;28;20039;-44
2023/12/13 04:16:22;;;;;;;2.38;1.35;;;;;;;7.32;81.88;98280.81;4972162;28;20046;-47
2023/12/13 04:18:49;;;;;;;2.38;2.00;;;;;;;7.31;82.25;98274.84;4981006;28;20456;-43
2023/12/13 04:21:16;;;;;;;1.48;0.80;;;;;;;7.33;81.42;98283.38;4988509;28;20050;-51
2023/12/13 04:23:42;;;;;;;2.53;1.45;;;;;;;7.35;82.43;98283.34;4991884;28;20034;-49
2023/12/13 04:26:09;;;;;;;1.65;0.98;;;;;;;7.30;82.01;98288.56;4986277;28;20144;-40
2023/12/13 04:28:36;;;;;;;1.30;0.52;;;;;;;7.33;81.00;98287.69;4983095;28;20046;-45
2023/12/13 04:31:03;;;;;;;2.58;1.13;;;;;;;7.36;80.92;98286.78;4988763;28;20046;-45
2023/12/13 04:33:31;;;;;;;4.05;1.13;;;;;;;7.35;81.16;98291.06;4988749;28;20109;-46
2023/12/13 04:35:59;;;;;;;4.47;1.17;;;;;;;7.36;81.62;98287.63;4987215;28;20126;-54
2023/12/13 04:38:26;;;;;;;2.60;1.17;;;;;;;7.38;81.24;98291.03;4986954;28;20146;-45
2023/12/13 04:40:53;;;;;;;2.17;0.75;;;;;;;7.38;82.12;98296.19;4990274;28;20042;-44
2023/12/13 04:43:20;;;;;;;2.10;0.90;;;;;;;7.38;82.09;98292.75;4980107;28;20051;-46
2023/12/13 04:45:46;;;;;;;1.83;1.20;;;;;;;7.37;81.96;98294.50;4983799;28;20150;-43
2023/12/13 04:48:13;;;;;;;1.58;0.88;;;;;;;7.37;81.22;98301.34;4987496;28;20057;-51
2023/12/13 04:50:40;;;;;;;2.20;0.95;;;;;;;7.35;80.80;98305.66;4981059;28;20539;-48
2023/12/13 04:53:06;;;;;;;1.75;1.17;;;;;;;7.33;81.80;98301.41;4989628;28;20042;-49
2023/12/13 04:55:33;;;;;;;1.88;0.93;;;;;;;7.33;82.10;98311.69;4989325;28;20570;-52
2023/12/13 04:58:00;;;;;;;1.08;0.73;;;;;;;7.33;81.18;98319.44;4986783;28;20077;-41
2023/12/13 05:00:26;;;;;;;2.08;0.80;;;;;;;7.31;80.78;98326.34;4989448;28;20054;-48
2023/12/13 05:02:54;;;;;;;0.45;0.40;;;;;;;7.30;81.08;98326.38;4988425;28;20069;-49
2023/12/13 05:05:21;;;;;;;1.10;1.00;;;;;;;7.27;81.75;98329.00;4985553;28;20100;-50
2023/12/13 05:07:47;;;;;;;1.00;0.50;;;;;;;7.29;80.81;98329.81;4984400;28;20050;-51
2023/12/13 05:10:14;;;;;;;1.15;0.73;;;;;;;7.31;81.25;98340.94;4990750;28;20581;-47
2023/12/13 05:12:41;;;;;;;0.80;0.75;;;;;;;7.29;80.94;98347.81;4991076;28;20459;-47
2023/12/13 05:15:08;;;;;;;3.47;0.60;;;;;;;7.30;81.02;98352.97;4990838;28;20050;-49
2023/12/13 05:17:34;;;;;;;1.15;0.52;;;;;;;7.29;81.89;98358.13;4990833;28;20061;-48
2023/12/13 05:20:03;;;;;;;1.42;0.80;;;;;;;7.26;81.10;98359.03;4990128;28;20058;-45
2023/12/13 05:22:30;;;;;;;1.45;0.35;;;;;;;7.25;82.42;98361.63;4985746;28;20526;-44
2023/12/13 05:24:57;;;;;;;1.65;1.55;;;;;;;7.26;82.07;98366.75;4987695;28;20440;-46
2023/12/13 05:27:24;;;;;;;1.05;0.57;;;;;;;7.27;82.24;98371.06;4987646;28;20047;-45
2023/12/13 05:29:51;;;;;;;2.22;0.75;;;;;;;7.26;82.09;98373.66;4985769;28;20122;-45
2023/12/13 05:32:18;;;;;;;0.90;0.43;;;;;;;7.25;81.47;98383.09;4992147;28;20057;-45
2023/12/13 05:34:44;;;;;;;2.90;0.93;;;;;;;7.27;81.32;98380.50;4989301;28;20053;-46
2023/12/13 05:37:11;;;;;;;3.50;1.00;;;;;;;7.27;81.52;98375.34;4990545;28;20137;-44
2023/12/13 05:39:38;;;;;;;2.17;1.02;;;;;;;7.25;82.30;98371.94;4985589;28;20038;-54
2023/12/13 05:42:05;;;;;;;2.90;0.77;;;;;;;7.23;82.36;98373.69;4990047;28;20133;-44
2023/12/13 05:44:31;;;;;;;2.55;1.35;;;;;;;7.19;81.84;98378.03;4985810;28;20059;-51
2023/12/13 05:46:58;;;;;;;3.58;2.08;;;;;;;7.18;82.80;98377.19;4988658;28;20419;-42
2023/12/13 05:49:25;;;;;;;1.80;1.33;;;;;;;7.18;82.76;98377.19;4984744;28;20061;-48
2023/12/13 05:51:52;;;;;;;1.75;1.27;;;;;;;7.17;82.22;98375.47;4988416;28;20499;-44
2023/12/13 05:54:19;;;;;;;1.40;0.95;;;;;;;7.14;81.94;98392.72;4983973;28;20061;-48
2023/12/13 05:56:47;;;;;;;1.88;0.90;;;;;;;7.14;82.97;98385.00;4983837;28;20058;-49
2023/12/13 05:59:14;;;;;;;2.97;1.00;;;;;;;7.13;83.39;98391.84;4987484;28;20061;-50
2023/12/13 06:01:40;;;;;;;1.58;0.73;;;;;;;7.13;82.70;98398.75;4990699;28;20050;-47
2023/12/13 06:04:07;;;;;;;2.55;1.65;;;;;;;7.15;82.92;98396.97;4991353;28;20500;-42
2023/12/13 06:06:34;;;;;;;1.65;1.08;;;;;;;7.12;82.45;98394.47;4983776;28;20043;-44
2023/12/13 06:09:02;;;;;;;2.20;1.92;;;;;;;7.13;82.21;98399.56;4978748;28;20078;-52
2023/12/13 06:11:29;;;;;;;2.40;1.40;;;;;;;7.13;83.07;98407.31;4988565;28;20093;-46
2023/12/13 06:13:55;;;;;;;2.20;1.42;;;;;;;7.13;81.77;98407.31;4985224;28;20479;-50
2023/12/13 06:16:22;;;;;;;2.25;1.27;;;;;;;7.10;83.25;98399.66;4986388;28;20050;-45
2023/12/13 06:18:49;;;;;;;4.43;1.52;;;;;;;7.10;82.97;98407.38;4987527;28;20074;-48
2023/12/13 06:21:16;;;;;;;2.50;1.10;;;;;;;7.08;82.35;98406.53;4983860;28;20463;-47
2023/12/13 06:23:42;;;;;;;2.55;1.67;;;;;;;7.09;82.04;98407.41;4964865;28;20106;-45
2023/12/13 06:26:09;;;;;;;5.82;1.63;;;;;;;7.06;82.68;98413.44;4964520;28;20050;-50
2023/12/13 06:28:36;;;;;;;2.20;1.30;;;;;;;7.06;82.91;98418.59;4966330;28;20043;-45
2023/12/13 06:31:03;;;;;;;1.77;0.98;;;;;;;7.01;83.36;98420.38;4967285;28;20093;-45
2023/12/13 06:33:30;;;;;;;3.42;2.03;;;;;;;7.01;83.78;98428.09;4964716;28;20539;-45
2023/12/13 06:35:57;;;;;;;2.53;1.80;;;;;;;7.01;84.06;98434.09;4968638;28;20054;-53
2023/12/13 06:38:24;;;;;;;2.42;1.65;;;;;;;7.04;84.21;98435.78;4966044;28;20063;-53
2023/12/13 06:40:50;;;;;;;1.42;0.70;;;;;;;7.05;84.06;98442.63;4965235;28;20094;-45
2023/12/13 06:43:17;;;;;;;1.67;0.98;;;;;;;6.98;84.64;98443.56;4967634;28;20513;-47
2023/12/13 06:45:44;;;;;;;2.50;1.10;;;;;;;7.02;84.17;98452.94;4973075;28;20057;-53
2023/12/13 06:48:11;;;;;;;1.40;0.82;;;;;;;7.05;83.92;98450.34;4982914;28;20455;-51
2023/12/13 06:50:38;;;;;;;1.75;1.20;;;;;;;7.04;84.34;98451.22;4970295;28;20137;-43
2023/12/13 06:53:04;;;;;;;1.13;0.98;;;;;;;7.02;84.93;98463.25;4972747;28;20046;-45
2023/12/13 06:55:31;;;;;;;1.40;0.50;;;;;;;6.97;84.11;98463.31;4985664;28;20128;-50
2023/12/13 06:57:58;;;;;;;1.98;1.20;;;;;;;6.98;84.25;98474.44;4976784;28;20066;-50
2023/12/13 07:00:27;;;;;;;1.25;0.57;;;;;;;6.98;84.57;98477.03;4968577;28;20047;-41
2023/12/13 07:03:16;;;;;;;1.77;1.67;;;;;;;6.98;84.39;98482.19;5067650;27;20405;-50
2023/12/13 07:05:43;;;;;;;2.00;1.90;;;;;;;6.99;85.68;98489.88;5056974;28;20051;-45
2023/12/13 07:08:09;;;;;;;1.15;1.02;;;;;;;6.99;85.60;98489.06;5062211;28;20410;-45
2023/12/13 07:10:36;;;;;;;1.63;1.08;;;;;;;7.00;84.77;98485.59;5062959;28;20467;-49
2023/12/13 07:13:03;;;;;;;1.40;1.30;;;;;;;7.01;85.10;98497.59;5063951;28;20041;-45
2023/12/13 07:15:30;;;;;;;1.60;1.50;;;;;;;6.96;85.82;98499.38;5064438;28;20042;-44
2023/12/13 07:17:57;;;;;;;1.55;1.45;;;;;;;7.01;85.36;98507.88;5064903;28;20052;-45
2023/12/13 07:20:23;;;;;;;1.90;1.77;;;;;;;6.99;86.71;98505.31;5065335;28;20060;-41
2023/12/13 07:22:50;;;;;;;1.65;1.55;;;;;;;6.96;86.60;98514.81;5082650;28;20045;-46
2023/12/13 07:25:17;;;;;;;1.58;1.48;;;;;;;6.90;86.78;98526.06;5084222;28;20560;-42
2023/12/13 07:27:44;;;;;;;1.85;1.75;;;;;;;6.93;86.21;98532.00;5083820;28;20036;-50
2023/12/13 07:30:11;;;;;;;0.98;0.88;;;;;;;6.93;85.98;98542.28;5084809;28;20588;-42
2023/12/13 07:32:39;;;;;;;1.65;1.55;;;;;;;6.89;86.13;98532.91;5084466;28;20076;-50
2023/12/13 07:35:07;;;;;;;1.63;1.48;;;;;;;6.77;84.66;98544.22;5084719;28;20044;-48
2023/12/13 07:37:35;;;;;;;1.25;1.15;;;;;;;6.73;85.18;98544.25;5084684;28;20045;-50
2023/12/13 07:40:03;;;;;;;1.58;1.48;;;;;;;6.70;84.91;98555.44;5084580;28;20040;-48
2023/12/13 07:42:31;;;;;;;1.35;1.25;;;;;;;6.69;85.14;98569.19;5083227;28;20489;-47
2023/12/13 07:44:59;;;;;;;1.90;1.80;;;;;;;6.62;85.45;98568.38;5077263;28;20127;-51
2023/12/13 07:47:25;;;;;;;0.98;0.98;;;;;;;6.64;84.18;98579.53;5085108;28;20439;-48
2023/12/13 07:49:53;;;;;;;1.63;1.52;;;;;;;6.62;84.20;98588.97;5083219;28;20052;-44
2023/12/13 07:52:20;;;;;;;1.05;0.95;;;;;;;6.60;83.50;98589.84;5080377;28;20051;-48
2023/12/13 07:54:48;;;;;;;1.58;1.48;;;;;;;6.49;84.13;98605.41;5083446;28;20083;-53
2023/12/13 07:57:15;;;;;;;1.90;1.80;;;;;;;6.41;84.54;98611.47;5079396;28;20059;-51
2023/12/13 07:59:42;;;;;;;1.33;0.88;;;;;;;6.45;84.84;98632.00;5082710;28;20425;-49
2023/12/13 08:02:09;;;;;;;1.40;1.30;;;;;;;6.47;85.32;98635.41;5081920;28;20058;-49
2023/12/13 08:04:35;;;;;;;2.20;1.58;;;;;;;6.54;84.83;98627.63;5078520;28;20044;-45
2023/12/13 08:07:02;;;;;;;1.70;1.60;;;;;;;6.48;84.49;98642.28;5083358;28;20055;-45
2023/12/13 08:09:30;;;;;;;1.70;1.60;;;;;;;6.47;84.45;98641.41;5083566;28;20086;-42
2023/12/13 08:11:57;;;;;;;0.77;0.55;;;;;;;6.42;84.77;98646.59;5082408;28;20449;-45
2023/12/13 08:14:29;;;;;;;2.22;1.92;;;;;;;6.39;84.61;98656.06;5068606;28;20045;-46
2023/12/13 08:16:57;;;;;;;1.63;1.52;;;;;;;6.45;82.95;98662.88;5068402;28;20554;-48
2023/12/13 08:19:23;;;;;;;0.73;0.38;;;;;;;6.43;83.44;98663.72;5069257;28;20422;-43
2023/12/13 08:21:51;;;;;;;1.98;0.50;;;;;;;6.35;83.27;98680.94;5067570;28;20409;-45
2023/12/13 08:24:18;;;;;;;1.85;1.75;;;;;;;6.37;84.25;98689.50;5069221;28;20053;-43
2023/12/13 08:26:45;;;;;;;2.63;2.42;;;;;;;6.30;84.31;98690.41;5070724;28;20049;-50
2023/12/13 08:29:12;;;;;;;1.10;1.05;;;;;;;6.38;82.92;98688.63;5071346;28;20404;-43
2023/12/13 08:31:38;;;;;;;2.25;1.83;;;;;;;6.39;83.27;98702.34;5069517;28;20605;-46
2023/12/13 08:34:06;;;;;;;2.15;1.60;;;;;;;6.40;83.97;98707.50;5070071;28;20048;-47
2023/12/13 08:36:33;;;;;;;1.58;1.48;;;;;;;6.38;82.72;98708.38;5069143;28;20075;-47
2023/12/13 08:39:00;;;;;;;1.27;1.17;;;;;;;6.27;82.14;98701.59;5069960;28;20045;-49
2023/12/13 08:41:27;;;;;;;1.40;1.20;;;;;;;6.35;82.40;98721.25;5070570;28;20051;-47
2023/12/13 08:43:55;;;;;;;1.83;1.73;;;;;;;6.31;81.90;98730.69;5070272;28;20044;-48
2023/12/13 08:46:21;;;;;;;2.45;1.63;;;;;;;6.36;82.36;98741.81;5069105;28;20127;-51
2023/12/13 08:48:48;;;;;;;1.80;1.05;;;;;;;6.35;82.77;98749.53;5072171;28;20072;-47
2023/12/13 08:51:15;;;;;;;2.10;2.00;;;;;;;6.33;81.76;98739.25;5069833;28;20048;-45
2023/12/13 08:53:42;;;;;;;2.03;1.80;;;;;;;6.30;81.42;98752.13;5063684;28;20068;-52
2023/12/13 08:56:10;;;;;;;1.65;1.55;;;;;;;6.28;82.40;98753.84;5070380;28;20059;-49
2023/12/13 08:58:36;;;;;;;2.20;2.10;;;;;;;6.27;81.80;98759.84;5069813;28;20048;-49
2023/12/13 09:01:03;;;;;;;5.00;1.90;;;;;;;6.31;82.96;98764.13;5072194;28;20057;-49
2023/12/13 09:03:30;;;;;;;1.60;1.50;;;;;;;6.32;81.27;98773.56;5071799;28;20051;-47
2023/12/13 09:05:57;;;;;;;2.47;1.17;;;;;;;6.28;81.20;98780.44;5071085;28;20040;-45
2023/12/13 09:08:24;;;;;;;4.28;3.67;;;;;;;6.32;82.32;98788.13;5070251;28;20546;-46
2023/12/13 09:10:50;;;;;;;2.08;1.98;;;;;;;6.35;82.62;98793.25;5066990;28;20044;-51
2023/12/13 09:13:17;;;;;;;1.75;1.65;;;;;;;6.30;82.15;98788.13;5065721;28;20052;-48
2023/12/13 09:15:44;;;;;;;1.65;1.55;;;;;;;6.27;82.25;98798.44;5068900;28;20094;-45
2023/12/13 09:18:11;;;;;;;1.77;1.65;;;;;;;6.21;81.96;98798.47;5074918;28;20135;-49
2023/12/13 09:20:38;;;;;;;1.80;1.70;;;;;;;6.22;81.62;98792.47;5069621;28;20045;-53
2023/12/13 09:23:05;;;;;;;1.52;1.42;;;;;;;6.20;82.21;98796.75;5069360;28;20051;-49
2023/12/13 09:25:32;;;;;;;1.75;1.63;;;;;;;6.20;83.12;98807.03;5067716;28;20052;-52
2023/12/13 09:27:59;;;;;;;1.80;1.70;;;;;;;6.20;81.93;98807.03;5069426;28;20055;-47
2023/12/13 09:30:26;;;;;;;1.67;1.58;;;;;;;6.19;82.18;98802.75;5068779;28;20045;-47
2023/12/13 09:32:53;;;;;;;1.10;1.08;;;;;;;6.11;82.81;98821.66;5069591;28;20046;-46
2023/12/13 09:35:20;;;;;;;1.27;1.17;;;;;;;6.16;81.21;98825.06;5068328;28;20044;-48
2023/12/13 09:37:46;;;;;;;1.38;1.27;;;;;;;6.12;81.57;98836.19;5071014;28;20059;-50
2023/12/13 09:40:15;;;;;;;1.42;1.17;;;;;;;6.15;81.32;98830.22;5070690;28;20053;-48
2023/12/13 09:42:45;;;;;;;1.77;1.67;;;;;;;6.15;81.86;98838.75;5072045;28;20049;-47
2023/12/13 09:45:20;;;;;;;1.30;1.23;;;;;;;6.23;80.93;98838.75;5069451;28;20051;-50
2023/12/13 09:47:49;;;;;;;2.08;1.75;;;;;;;6.19;81.00;98843.91;5070505;28;20055;-49
2023/12/13 09:50:16;;;;;;;1.35;1.25;;;;;;;6.21;81.29;98849.91;5072845;28;20132;-45
2023/12/13 09:52:44;;;;;;;1.92;1.48;;;;;;;6.20;81.52;98855.88;5071957;28;20051;-46
2023/12/13 09:55:12;;;;;;;2.25;2.15;;;;;;;6.10;81.93;98862.78;5070228;28;20092;-46
2023/12/13 09:57:39;;;;;;;1.63;1.52;;;;;;;6.05;82.42;98860.25;5071750;28;20497;-51
2023/12/13 10:00:06;;;;;;;1.25;1.15;;;;;;;6.10;82.47;98866.22;5067901;28;20056;-50
2023/12/13 10:02:35;;;;;;;1.95;1.75;;;;;;;6.12;82.05;98869.63;5069940;28;20071;-43
2023/12/13 10:05:02;;;;;;;2.00;1.80;;;;;;;6.15;83.15;98867.03;5072111;28;20048;-46
2023/12/13 10:07:29;;;;;;;2.40;2.22;;;;;;;6.15;82.65;98872.19;5072942;28;20079;-47
2023/12/13 10:09:56;;;;;;;1.70;1.60;;;;;;;6.02;83.50;98870.50;5070829;28;20714;-50
2023/12/13 10:12:26;;;;;;;1.77;1.52;;;;;;;6.09;83.58;98887.66;5069731;28;20044;-48
2023/12/13 10:14:53;;;;;;;1.58;1.48;;;;;;;6.07;83.48;98878.22;5071673;28;20059;-48
2023/12/13 10:17:21;;;;;;;2.15;1.50;;;;;;;5.97;82.72;98883.34;5070791;28;20047;-46
2023/12/13 10:19:48;;;;;;;2.20;1.92;;;;;;;6.01;83.46;98890.19;5074004;28;20109;-48
2023/12/13 10:22:16;;;;;;;2.25;1.52;;;;;;;6.01;82.71;98891.94;5069885;28;20051;-50
2023/12/13 10:24:43;;;;;;;2.45;2.25;;;;;;;5.92;81.95;98891.06;5070276;28;20055;-45
2023/12/13 10:27:10;;;;;;;1.52;1.42;;;;;;;5.95;82.30;98894.50;5074113;28;20052;-54
2023/12/13 10:29:37;;;;;;;1.95;1.83;;;;;;;5.92;82.58;98906.50;5072952;28;20044;-47
2023/12/13 10:32:04;;;;;;;3.85;1.67;;;;;;;6.02;82.27;98917.59;5072692;28;20052;-53
2023/12/13 10:34:31;;;;;;;1.90;1.80;;;;;;;5.97;81.96;98923.63;5069078;28;20056;-47
2023/12/13 10:36:59;;;;;;;1.80;1.70;;;;;;;6.01;81.91;98925.34;5071605;28;20056;-53
2023/12/13 10:39:27;;;;;;;1.60;1.50;;;;;;;6.04;82.78;98928.78;5071378;28;20063;-44
2023/12/13 10:41:56;;;;;;;2.97;1.80;;;;;;;6.08;82.02;98937.34;5071263;28;20044;-51
2023/12/13 10:44:26;;;;;;;1.05;0.77;;;;;;;6.02;81.79;98937.34;5072315;28;20452;-47
2023/12/13 10:46:56;;;;;;;8.32;2.65;;;;;;;5.95;81.81;98946.78;5070424;28;20134;-49
2023/12/13 10:49:24;;;;;;;1.80;1.33;;;;;;;5.88;82.43;98963.91;5072901;28;20048;-49
2023/12/13 10:51:52;;;;;;;1.55;1.45;;;;;;;5.97;81.44;98962.16;5070470;28;20132;-50
2023/12/13 10:54:19;;;;;;;2.50;1.50;;;;;;;5.95;82.89;98974.19;5071868;28;20048;-42
2023/12/13 10:56:46;;;;;;;1.77;1.67;;;;;;;5.97;81.72;98975.03;5074432;28;20055;-49
2023/12/13 10:59:15;;;;;;;1.63;1.30;;;;;;;5.91;81.47;98986.16;5066466;28;20072;-45
2023/12/13 11:01:42;;;;;;;1.73;1.42;;;;;;;5.98;82.50;98974.19;5066903;28;20052;-45
2023/12/13 11:04:12;;;;;;;1.40;1.30;;;;;;;5.98;81.34;98987.03;5067695;28;20058;-51
2023/12/13 11:06:45;;;;;;;1.67;1.17;;;;;;;5.92;81.92;98988.75;5071074;28;20045;-46
2023/12/13 11:11:48;;;;;;;3.13;1.30;;;;;;;6.22;81.68;98990.47;5063122;27;20404;-51
2023/12/13 11:14:17;;;;;;;2.67;0.95;;;;;;;6.07;81.99;98987.03;5030394;28;20052;-44
2023/12/13 11:16:47;;;;;;;1.75;1.05;;;;;;;5.95;82.33;98995.63;5022326;28;20049;-52
2023/12/13 11:19:19;;;;;;;;;;;;;;;5.87;82.44;99000.75;5026910;28;20091;-44
2023/12/13 11:21:47;;;;;;;1.45;1.05;;;;;;;5.91;81.71;99005.03;5022699;28;19929;-45
2023/12/13 11:26:53;;;;;;;3.00;0.40;;;;;;;5.92;81.03;99009.31;5061681;27;20735;-50
2023/12/13 11:29:22;;;;;;;2.60;0.55;;;;;;;5.87;81.33;99000.75;5029639;28;20100;-48
2023/12/13 11:37:07;;;;;;;2.58;1.58;;;;;;;5.81;82.11;99010.19;5051885;27;20395;-44
2023/12/13 11:39:36;;;;;;;2.35;2.05;;;;;;;5.81;81.74;99021.28;5029305;28;20053;-43
2023/12/13 11:42:05;;;;;;;2.22;2.03;;;;;;;5.77;83.34;99024.72;5028984;28;20052;-48
2023/12/13 11:44:34;;;;;;;3.92;1.88;;;;;;;5.89;83.33;99021.31;5028235;28;20167;-52
2023/12/13 11:47:03;;;;;;;1.80;1.70;;;;;;;5.85;82.97;99032.44;5026065;28;20049;-44
2023/12/13 11:49:30;;;;;;;1.55;1.45;;;;;;;5.90;83.05;99041.88;5064139;28;20506;-44